createdAt,value
2019-01-23T00:00:29.513Z,90.62
2019-01-23T00:02:57.917Z,90.47
2019-01-23T00:05:26.325Z,90.08
2019-01-23T00:07:54.589Z,90.33
2019-01-23T00:10:23.033Z,90.43
2019-01-23T00:12:51.411Z,90.63
2019-01-23T00:15:19.836Z,90.26
2019-01-23T00:17:48.103Z,90.34
2019-01-23T00:20:16.455Z,90.34
2019-01-23T00:22:44.828Z,90.74
2019-01-23T00:25:13.244Z,90.58
2019-01-23T00:27:41.650Z,90.74
2019-01-23T00:30:13.418Z,90.98
2019-01-23T00:32:41.986Z,91.14
2019-01-23T00:35:10.251Z,91.14
2019-01-23T00:37:38.799Z,91.20
2019-01-23T00:40:15.742Z,90.99
2019-01-23T00:42:44.120Z,91.30
2019-01-23T00:45:14.883Z,91.08
2019-01-23T00:47:43.217Z,90.68
2019-01-23T00:50:13.691Z,91.33
2019-01-23T00:52:42.105Z,91.73
2019-01-23T00:55:13.682Z,91.92
2019-01-23T00:57:42.017Z,92.06
2019-01-23T01:00:19.177Z,92.30
2019-01-23T01:02:47.470Z,92.45
2019-01-23T01:05:16.407Z,92.23
2019-01-23T01:07:44.834Z,91.84
2019-01-23T01:10:15.828Z,91.46
2019-01-23T01:12:44.179Z,91.37
2019-01-23T01:15:13.449Z,91.24
2019-01-23T01:17:42.066Z,91.20
2019-01-23T01:20:13.867Z,90.88
2019-01-23T01:22:42.221Z,90.59
2019-01-23T01:25:14.974Z,90.74
2019-01-23T01:27:43.424Z,90.65
2019-01-23T01:30:14.906Z,90.81
2019-01-23T01:32:43.178Z,90.82
2019-01-23T01:35:11.599Z,91.06
2019-01-23T01:37:39.868Z,91.59
2019-01-23T01:40:12.535Z,91.59
2019-01-23T01:42:41.079Z,91.36
2019-01-23T01:45:11.958Z,90.89
2019-01-23T01:47:40.367Z,90.68
2019-01-23T01:50:15.138Z,91.52
2019-01-23T01:52:43.554Z,91.13
2019-01-23T01:55:11.921Z,91.19
2019-01-23T01:57:40.219Z,90.77
2019-01-23T02:00:20.235Z,90.55
2019-01-23T02:02:48.528Z,89.70
2019-01-23T02:05:16.879Z,90.10
2019-01-23T02:07:45.298Z,90.45
2019-01-23T02:10:19.311Z,90.66
2019-01-23T02:12:48.895Z,89.81
2019-01-23T02:15:18.871Z,89.71
2019-01-23T02:17:47.105Z,89.99
2019-01-23T02:20:21.382Z,89.76
2019-01-23T02:22:49.719Z,89.88
2019-01-23T02:25:18.478Z,89.66
2019-01-23T02:27:47.925Z,89.75
2019-01-23T02:30:19.455Z,89.99
2019-01-23T02:32:47.732Z,90.24
2019-01-23T02:35:16.203Z,89.56
2019-01-23T02:37:44.556Z,89.89
2019-01-23T02:40:18.412Z,89.67
2019-01-23T02:42:46.771Z,89.68
2019-01-23T02:45:15.125Z,89.75
2019-01-23T02:47:43.706Z,89.72
2019-01-23T02:50:12.281Z,89.46
2019-01-23T02:52:40.817Z,89.44
2019-01-23T02:55:10.549Z,90.27
2019-01-23T02:57:38.857Z,90.03
2019-01-23T03:00:13.423Z,89.25
2019-01-23T03:02:41.851Z,89.41
2019-01-23T03:05:13.545Z,89.67
2019-01-23T03:07:41.845Z,89.63
2019-01-23T03:10:13.569Z,89.67
2019-01-23T03:12:42.000Z,89.65
2019-01-23T03:15:12.483Z,89.35
2019-01-23T03:17:40.929Z,89.69
2019-01-23T03:20:12.527Z,89.32
2019-01-23T03:22:40.967Z,89.61
2019-01-23T03:25:12.629Z,89.53
2019-01-23T03:27:40.965Z,89.77
2019-01-23T03:30:12.681Z,89.76
2019-01-23T03:32:41.051Z,89.58
2019-01-23T03:35:10.261Z,89.03
2019-01-23T03:37:38.594Z,89.54
2019-01-23T03:40:12.731Z,89.26
2019-01-23T03:42:41.094Z,89.74
2019-01-23T03:45:11.721Z,90.09
2019-01-23T03:47:40.265Z,90.16
2019-01-23T03:50:14.432Z,89.97
2019-01-23T03:52:42.829Z,89.68
2019-01-23T03:55:13.072Z,88.88
2019-01-23T03:57:41.336Z,88.95
2019-01-23T04:00:15.604Z,89.10
2019-01-23T04:02:43.867Z,88.68
2019-01-23T04:05:12.209Z,89.22
2019-01-23T04:07:40.617Z,88.71
2019-01-23T04:10:11.754Z,88.75
2019-01-23T04:12:40.106Z,89.10
2019-01-23T04:15:10.914Z,89.35
2019-01-23T04:17:39.302Z,89.33
2019-01-23T04:20:13.912Z,89.04
2019-01-23T04:22:42.214Z,88.54
2019-01-23T04:25:10.947Z,88.95
2019-01-23T04:27:39.331Z,88.54
2019-01-23T04:30:10.903Z,88.82
2019-01-23T04:32:39.298Z,88.22
2019-01-23T04:35:07.638Z,88.48
2019-01-23T04:37:35.981Z,88.69
2019-01-23T04:40:07.035Z,88.52
2019-01-23T04:42:35.382Z,88.62
2019-01-23T04:45:04.896Z,88.57
2019-01-23T04:47:33.297Z,88.49
2019-01-23T04:50:05.469Z,89.04
2019-01-23T04:52:35.420Z,89.16
2019-01-23T04:55:03.853Z,89.02
2019-01-23T04:57:32.266Z,88.91
2019-01-23T05:00:00.670Z,88.94
2019-01-23T05:02:29.103Z,89.17
2019-01-23T05:04:57.571Z,89.07
2019-01-23T05:07:25.985Z,89.36
2019-01-23T05:09:54.280Z,89.47
2019-01-23T05:12:22.555Z,89.25
2019-01-23T05:14:50.920Z,88.97
2019-01-23T05:17:19.373Z,88.76
2019-01-23T05:19:47.852Z,89.07
2019-01-23T05:22:18.804Z,88.84
2019-01-23T05:24:47.095Z,89.04
2019-01-23T05:27:15.377Z,88.75
2019-01-23T05:29:43.736Z,89.34
2019-01-23T05:32:12.107Z,89.28
2019-01-23T05:34:40.397Z,89.32
2019-01-23T05:37:08.665Z,89.17
2019-01-23T05:39:37.039Z,89.09
2019-01-23T05:42:05.313Z,89.03
2019-01-23T05:44:33.689Z,89.32
2019-01-23T05:47:02.107Z,89.47
2019-01-23T05:49:30.371Z,89.52
2019-01-23T05:51:58.724Z,89.16
2019-01-23T05:54:27.023Z,89.32
2019-01-23T05:56:55.357Z,89.44
2019-01-23T05:59:23.648Z,89.36
2019-01-23T06:01:52.020Z,89.38
2019-01-23T06:04:20.314Z,89.43
2019-01-23T06:06:48.651Z,89.29
2019-01-23T06:09:16.994Z,89.42
2019-01-23T06:11:45.332Z,89.49
2019-01-23T06:14:13.664Z,89.48
2019-01-23T06:16:42.144Z,89.69
2019-01-23T06:19:10.406Z,89.59
2019-01-23T06:21:38.900Z,89.49
2019-01-23T06:24:07.251Z,89.33
2019-01-23T06:26:35.526Z,89.36
2019-01-23T06:29:03.859Z,89.32
2019-01-23T06:31:32.208Z,89.30
2019-01-23T06:34:00.508Z,89.46
2019-01-23T06:36:28.853Z,89.50
2019-01-23T06:38:57.225Z,89.44
2019-01-23T06:41:25.493Z,89.57
2019-01-23T06:43:53.792Z,89.56
2019-01-23T06:46:22.102Z,89.91
2019-01-23T06:48:50.397Z,89.65
2019-01-23T06:51:18.753Z,89.35
2019-01-23T06:53:47.224Z,88.28
2019-01-23T06:56:15.493Z,88.25
2019-01-23T06:58:43.847Z,88.50
2019-01-23T07:01:12.175Z,88.62
2019-01-23T07:03:40.488Z,88.36
2019-01-23T07:06:09.074Z,88.63
2019-01-23T07:08:37.365Z,88.58
2019-01-23T07:11:05.640Z,88.26
2019-01-23T07:13:33.935Z,87.96
2019-01-23T07:16:02.208Z,88.21
2019-01-23T07:18:30.506Z,88.33
2019-01-23T07:20:58.844Z,88.00
2019-01-23T07:23:27.144Z,88.13
2019-01-23T07:25:55.413Z,88.33
2019-01-23T07:28:23.720Z,88.26
2019-01-23T07:30:51.998Z,88.71
2019-01-23T07:33:20.340Z,88.08
2019-01-23T07:35:48.797Z,87.94
2019-01-23T07:38:17.064Z,88.02
2019-01-23T07:40:45.481Z,87.96
2019-01-23T07:43:13.900Z,87.77
2019-01-23T07:45:42.227Z,88.12
2019-01-23T07:48:10.553Z,87.97
2019-01-23T07:50:38.915Z,87.09
2019-01-23T07:53:07.270Z,87.80
2019-01-23T07:55:35.603Z,87.31
2019-01-23T07:58:03.935Z,87.43
2019-01-23T08:00:32.202Z,87.21
2019-01-23T08:03:00.472Z,86.86
2019-01-23T08:05:28.767Z,86.92
2019-01-23T08:07:57.109Z,87.47
2019-01-23T08:10:25.392Z,87.29
2019-01-23T08:12:54.233Z,87.08
2019-01-23T08:15:28.767Z,86.45
2019-01-23T08:17:57.135Z,86.83
2019-01-23T08:20:27.741Z,86.48
2019-01-23T08:22:56.160Z,86.47
2019-01-23T08:25:24.423Z,86.95
2019-01-23T08:27:52.773Z,87.18
2019-01-23T08:30:23.718Z,86.31
2019-01-23T08:32:52.027Z,86.01
2019-01-23T08:35:21.465Z,86.09
2019-01-23T08:37:49.795Z,85.29
2019-01-23T08:40:19.282Z,84.57
2019-01-23T08:42:47.671Z,83.98
2019-01-23T08:45:16.122Z,83.45
2019-01-23T08:47:44.572Z,83.92
2019-01-23T08:50:16.329Z,83.55
2019-01-23T08:52:44.880Z,84.14
2019-01-23T08:55:13.217Z,84.04
2019-01-23T08:57:41.598Z,83.93
2019-01-23T09:00:13.223Z,83.86
2019-01-23T09:02:41.746Z,83.99
2019-01-23T09:05:11.262Z,84.54
2019-01-23T09:07:40.903Z,84.42
2019-01-23T09:10:15.257Z,84.17
2019-01-23T09:12:43.531Z,84.36
2019-01-23T09:15:15.101Z,84.23
2019-01-23T09:17:43.486Z,84.07
2019-01-23T09:20:14.985Z,83.33
2019-01-23T09:22:43.427Z,83.19
2019-01-23T09:25:15.003Z,83.31
2019-01-23T09:27:43.349Z,83.55
2019-01-23T09:30:17.145Z,83.33
2019-01-23T09:33:14.379Z,83.37
2019-01-23T09:36:13.127Z,82.73
2019-01-23T09:39:01.076Z,82.03
2019-01-23T09:41:47.454Z,81.62
2019-01-23T09:44:31.067Z,81.29
2019-01-23T09:47:05.427Z,80.81
2019-01-23T09:49:39.642Z,80.80
2019-01-23T09:52:27.902Z,80.78
2019-01-23T09:54:56.195Z,80.66
2019-01-23T09:57:24.464Z,80.64
2019-01-23T09:59:52.867Z,79.96
2019-01-23T10:02:21.121Z,80.32
2019-01-23T10:04:49.464Z,79.79
2019-01-23T10:07:17.802Z,79.64
2019-01-23T10:09:46.195Z,77.96
2019-01-23T10:12:14.471Z,77.91
2019-01-23T10:14:42.750Z,78.13
2019-01-23T10:17:11.051Z,77.48
2019-01-23T10:19:39.413Z,76.72
2019-01-23T10:22:07.750Z,76.09
2019-01-23T10:24:36.259Z,75.71
2019-01-23T10:27:04.571Z,75.57
2019-01-23T10:29:32.936Z,75.48
2019-01-23T10:32:01.253Z,74.99
2019-01-23T10:34:29.613Z,75.46
2019-01-23T10:36:57.875Z,76.10
2019-01-23T10:39:26.247Z,76.45
2019-01-23T10:41:55.562Z,76.15
2019-01-23T10:44:23.899Z,76.40
2019-01-23T10:46:52.173Z,77.22
2019-01-23T10:49:20.571Z,77.33
2019-01-23T10:51:48.938Z,76.49
2019-01-23T10:54:17.399Z,76.29
2019-01-23T10:56:45.791Z,75.52
2019-01-23T10:59:14.151Z,76.34
2019-01-23T11:01:42.463Z,76.08
2019-01-23T11:04:10.887Z,76.30
2019-01-23T11:06:39.195Z,76.83
2019-01-23T11:09:07.736Z,77.26
2019-01-23T11:11:36.172Z,77.36
2019-01-23T11:14:04.771Z,76.99
2019-01-23T11:16:33.106Z,76.77
2019-01-23T11:19:01.498Z,76.66
2019-01-23T11:21:29.771Z,76.91
2019-01-23T11:23:58.147Z,77.51
2019-01-23T11:26:26.423Z,76.38
2019-01-23T11:28:54.777Z,76.79
2019-01-23T11:31:23.187Z,76.87
2019-01-23T11:33:51.452Z,77.20
2019-01-23T11:36:19.867Z,77.37
2019-01-23T11:38:48.145Z,76.46
2019-01-23T11:41:16.487Z,76.16
2019-01-23T11:43:44.872Z,76.69
2019-01-23T11:46:13.234Z,76.83
2019-01-23T11:48:41.639Z,76.80
2019-01-23T11:51:09.914Z,76.45
2019-01-23T11:53:38.255Z,76.46
2019-01-23T11:56:06.589Z,76.97
2019-01-23T11:58:34.991Z,76.93
2019-01-23T12:01:03.433Z,76.76
2019-01-23T12:03:31.735Z,77.17
2019-01-23T12:06:00.227Z,77.29
2019-01-23T12:08:28.613Z,77.41
2019-01-23T12:10:57.937Z,77.10
2019-01-23T12:13:27.178Z,76.69
2019-01-23T12:15:55.641Z,76.74
2019-01-23T12:18:24.002Z,76.67
2019-01-23T12:20:52.344Z,76.98
2019-01-23T12:23:20.863Z,76.85
2019-01-23T12:25:49.264Z,76.98
2019-01-23T12:28:17.705Z,76.37
2019-01-23T12:30:46.103Z,77.32
2019-01-23T12:33:14.456Z,76.92
2019-01-23T12:35:42.810Z,76.71
2019-01-23T12:38:11.122Z,77.31
2019-01-23T12:40:45.594Z,77.13
2019-01-23T12:43:13.965Z,76.92
2019-01-23T12:45:42.310Z,77.20
2019-01-23T12:48:10.716Z,77.52
2019-01-23T12:50:39.109Z,77.36
2019-01-23T12:53:07.462Z,77.46
2019-01-23T12:55:35.871Z,77.80
2019-01-23T12:58:04.272Z,78.13
2019-01-23T13:00:32.668Z,77.50
2019-01-23T13:03:01.096Z,77.69
2019-01-23T13:05:29.459Z,77.58
2019-01-23T13:07:57.776Z,77.10
2019-01-23T13:10:26.043Z,76.93
2019-01-23T13:12:55.752Z,76.92
2019-01-23T13:15:26.724Z,76.64
2019-01-23T13:17:55.862Z,76.87
2019-01-23T13:20:26.643Z,76.33
2019-01-23T13:22:55.082Z,76.29
2019-01-23T13:25:25.586Z,76.15
2019-01-23T13:27:54.029Z,76.21
2019-01-23T13:30:28.413Z,76.20
2019-01-23T13:32:56.751Z,75.52
2019-01-23T13:35:37.016Z,75.92
2019-01-23T13:38:08.889Z,76.22
2019-01-23T13:40:39.819Z,76.27
2019-01-23T13:43:08.229Z,76.14
2019-01-23T13:45:36.618Z,75.39
2019-01-23T13:48:05.847Z,75.28
2019-01-23T13:50:34.113Z,74.98
2019-01-23T13:53:02.552Z,74.60
2019-01-23T13:55:30.914Z,73.36
2019-01-23T13:57:59.276Z,74.17
2019-01-23T14:00:30.969Z,74.75
2019-01-23T14:02:59.286Z,75.47
2019-01-23T14:05:27.578Z,75.20
2019-01-23T14:07:56.147Z,75.51
2019-01-23T14:10:24.422Z,76.59
2019-01-23T14:12:52.950Z,75.42
2019-01-23T14:15:27.327Z,75.86
2019-01-23T14:17:55.699Z,75.20
2019-01-23T14:20:24.190Z,74.07
2019-01-23T14:22:52.568Z,73.26
2019-01-23T14:25:20.909Z,73.86
2019-01-23T14:27:49.256Z,74.43
2019-01-23T14:30:26.771Z,74.25
2019-01-23T14:32:55.148Z,73.62
2019-01-23T14:35:23.523Z,73.92
2019-01-23T14:37:51.827Z,73.99
2019-01-23T14:40:20.191Z,73.67
2019-01-23T14:42:48.554Z,73.50
2019-01-23T14:45:18.539Z,73.32
2019-01-23T14:47:47.094Z,73.51
2019-01-23T14:50:18.580Z,74.16
2019-01-23T14:52:48.259Z,73.82
2019-01-23T14:55:17.011Z,74.78
2019-01-23T14:57:45.520Z,75.26
2019-01-23T15:00:31.975Z,74.05
2019-01-23T15:03:00.328Z,74.07
2019-01-23T15:05:28.719Z,74.09
2019-01-23T15:07:57.115Z,73.76
2019-01-23T15:10:30.951Z,75.20
2019-01-23T15:12:59.362Z,75.18
2019-01-23T15:15:27.656Z,74.64
2019-01-23T15:17:57.052Z,74.92
2019-01-23T15:20:31.224Z,74.55
2019-01-23T15:22:59.504Z,74.71
2019-01-23T15:25:27.845Z,74.65
2019-01-23T15:27:56.121Z,75.04
2019-01-23T15:30:25.690Z,75.30
2019-01-23T15:32:54.052Z,75.74
2019-01-23T15:35:22.474Z,76.35
2019-01-23T15:37:50.827Z,77.51
2019-01-23T15:40:22.423Z,77.91
2019-01-23T15:42:50.908Z,78.53
2019-01-23T15:45:19.251Z,78.97
2019-01-23T15:47:47.567Z,79.01
2019-01-23T15:50:22.118Z,77.79
2019-01-23T15:52:50.465Z,77.76
2019-01-23T15:55:21.308Z,78.07
2019-01-23T15:57:49.577Z,78.08
2019-01-23T16:00:21.187Z,78.31
2019-01-23T16:02:49.487Z,78.05
2019-01-23T16:05:17.925Z,78.05
2019-01-23T16:07:46.229Z,77.99
2019-01-23T16:10:26.274Z,78.29
2019-01-23T16:12:54.620Z,78.37
2019-01-23T16:15:26.206Z,78.33
2019-01-23T16:17:54.532Z,78.43
2019-01-23T16:20:22.989Z,78.73
2019-01-23T16:22:51.417Z,78.92
2019-01-23T16:25:19.728Z,78.82
2019-01-23T16:27:48.138Z,79.23
2019-01-23T16:30:22.647Z,79.55
2019-01-23T16:32:51.002Z,79.40
2019-01-23T16:35:20.198Z,79.52
2019-01-23T16:37:48.739Z,79.47
2019-01-23T16:40:22.343Z,79.58
2019-01-23T16:42:50.803Z,79.69
2019-01-23T16:45:21.321Z,79.97
2019-01-23T16:47:49.679Z,80.07
2019-01-23T16:50:20.423Z,79.35
2019-01-23T16:52:48.766Z,78.91
2019-01-23T16:55:17.185Z,78.84
2019-01-23T16:57:47.849Z,78.46
2019-01-23T17:00:19.431Z,78.34
2019-01-23T17:02:48.161Z,78.07
2019-01-23T17:05:30.876Z,77.60
2019-01-23T17:08:05.079Z,77.53
2019-01-23T17:10:33.438Z,77.65
2019-01-23T17:13:01.782Z,78.10
2019-01-23T17:15:30.110Z,77.80
2019-01-23T17:17:58.481Z,78.27
2019-01-23T17:20:38.936Z,78.87
2019-01-23T17:23:07.373Z,78.30
2019-01-23T17:25:35.857Z,78.36
2019-01-23T17:28:15.088Z,78.63
2019-01-23T17:31:07.070Z,78.26
2019-01-23T17:33:38.193Z,78.37
2019-01-23T17:36:22.326Z,79.67
2019-01-23T17:39:05.996Z,79.06
2019-01-23T17:41:35.495Z,78.71
2019-01-23T17:44:14.765Z,78.13
2019-01-23T17:46:57.601Z,78.31
2019-01-23T17:49:43.119Z,78.44
2019-01-23T17:52:27.323Z,78.37
2019-01-23T17:54:56.882Z,78.54
2019-01-23T17:57:25.239Z,78.52
2019-01-23T17:59:58.104Z,78.85
2019-01-23T18:02:27.164Z,78.35
2019-01-23T18:04:55.426Z,78.75
2019-01-23T18:07:23.841Z,78.91
2019-01-23T18:09:52.294Z,78.54
2019-01-23T18:12:20.859Z,78.65
2019-01-23T18:14:49.282Z,78.85
2019-01-23T18:17:17.667Z,78.38
2019-01-23T18:19:47.177Z,78.47
2019-01-23T18:22:16.472Z,78.69
2019-01-23T18:24:44.898Z,78.88
2019-01-23T18:27:13.653Z,78.94
2019-01-23T18:29:42.001Z,79.23
2019-01-23T18:32:10.500Z,79.62
2019-01-23T18:34:48.382Z,79.71
2019-01-23T18:37:20.222Z,79.54
2019-01-23T18:40:07.898Z,79.66
2019-01-23T18:42:48.958Z,79.90
2019-01-23T18:45:23.950Z,80.36
2019-01-23T18:47:58.359Z,80.53
2019-01-23T18:50:29.947Z,80.61
2019-01-23T18:52:58.400Z,80.55
2019-01-23T18:58:35.359Z,80.88
2019-01-23T19:01:17.413Z,80.77
2019-01-23T19:04:02.550Z,80.98
2019-01-23T19:06:34.067Z,81.14
2019-01-23T19:09:05.729Z,81.30
2019-01-23T19:11:35.008Z,81.44
2019-01-23T19:14:04.326Z,81.68
2019-01-23T19:16:33.947Z,81.55
2019-01-23T19:19:03.126Z,81.55
2019-01-23T19:21:34.625Z,81.42
2019-01-23T19:24:03.256Z,81.56
2019-01-23T19:26:33.547Z,81.56
2019-01-23T19:29:01.880Z,81.52
2019-01-23T19:31:30.263Z,81.78
2019-01-23T19:33:58.949Z,81.91
2019-01-23T19:36:27.317Z,82.18
2019-01-23T19:38:55.662Z,82.33
2019-01-23T19:41:24.185Z,82.55
2019-01-23T19:43:58.626Z,82.52
2019-01-23T19:46:27.213Z,82.56
2019-01-23T19:48:55.731Z,82.49
2019-01-23T19:51:24.075Z,82.45
2019-01-23T19:53:52.525Z,82.63
2019-01-23T19:56:20.850Z,82.94
2019-01-23T19:58:49.171Z,83.00
2019-01-23T20:01:17.461Z,83.02
2019-01-23T20:03:45.886Z,83.16
2019-01-23T20:06:14.263Z,83.44
2019-01-23T20:08:42.676Z,83.77
2019-01-23T20:11:11.105Z,83.88
2019-01-23T20:13:39.846Z,83.23
2019-01-23T20:16:08.920Z,83.63
2019-01-23T20:18:38.637Z,83.94
2019-01-23T20:21:07.167Z,84.46
2019-01-23T20:23:35.638Z,84.66
2019-01-23T20:26:03.980Z,84.87
2019-01-23T20:28:32.256Z,84.90
2019-01-23T20:31:01.368Z,84.98
2019-01-23T20:33:29.743Z,85.01
2019-01-23T20:35:58.094Z,85.16
2019-01-23T20:38:26.781Z,85.22
2019-01-23T20:40:55.142Z,85.26
2019-01-23T20:43:23.450Z,85.55
2019-01-23T20:45:51.997Z,85.50
2019-01-23T20:48:20.337Z,85.51
2019-01-23T20:50:48.652Z,85.68
2019-01-23T20:53:17.242Z,84.92
2019-01-23T20:55:45.699Z,84.41
2019-01-23T20:58:14.150Z,84.55
2019-01-23T21:00:42.725Z,84.86
2019-01-23T21:03:11.116Z,85.45
2019-01-23T21:05:39.460Z,86.02
2019-01-23T21:08:08.031Z,86.47
2019-01-23T21:10:36.378Z,86.80
2019-01-23T21:13:04.895Z,87.06
2019-01-23T21:15:33.226Z,87.06
2019-01-23T21:18:01.675Z,86.66
2019-01-23T21:20:31.225Z,86.41
2019-01-23T21:22:59.705Z,86.58
2019-01-23T21:25:28.362Z,86.73
2019-01-23T21:27:57.149Z,86.87
2019-01-23T21:30:27.574Z,86.86
2019-01-23T21:32:56.751Z,86.55
2019-01-23T21:35:25.706Z,87.07
2019-01-23T21:38:01.437Z,86.58
2019-01-23T21:40:31.317Z,87.17
2019-01-23T21:43:00.688Z,88.32
2019-01-23T21:45:30.846Z,88.77
2019-01-23T21:47:59.381Z,88.60
2019-01-23T21:50:27.721Z,87.74
2019-01-23T21:52:56.091Z,87.93
2019-01-23T21:55:24.987Z,88.27
2019-01-23T21:57:53.324Z,86.16
2019-01-23T22:00:39.823Z,87.50
2019-01-23T22:03:11.274Z,87.98
2019-01-23T22:05:39.591Z,88.33
2019-01-23T22:08:08.167Z,88.54
2019-01-23T22:10:36.480Z,88.56
2019-01-23T22:13:04.985Z,88.33
2019-01-23T22:15:34.502Z,88.54
2019-01-23T22:18:03.011Z,88.64
2019-01-23T22:20:31.361Z,88.69
2019-01-23T22:22:59.835Z,88.44
2019-01-23T22:25:28.143Z,88.86
2019-01-23T22:27:56.425Z,88.60
2019-01-23T22:30:30.883Z,88.20
2019-01-23T22:32:59.359Z,88.39
2019-01-23T22:35:27.733Z,88.10
2019-01-23T22:37:56.173Z,88.05
2019-01-23T22:40:24.538Z,87.93
2019-01-23T22:42:52.813Z,87.72
2019-01-23T22:45:22.289Z,87.74
2019-01-23T22:47:50.638Z,88.00
2019-01-23T22:50:24.672Z,87.89
2019-01-23T22:52:53.194Z,88.10
2019-01-23T22:55:22.646Z,87.15
2019-01-23T22:57:51.856Z,86.95
2019-01-23T23:00:33.635Z,86.92
2019-01-23T23:03:03.079Z,87.07
2019-01-23T23:05:31.985Z,86.80
2019-01-23T23:08:00.449Z,86.87
2019-01-23T23:10:28.798Z,86.79
2019-01-23T23:12:57.189Z,86.20
2019-01-23T23:15:25.514Z,86.14
2019-01-23T23:17:53.855Z,86.09
2019-01-23T23:20:22.183Z,86.34
2019-01-23T23:22:50.650Z,86.17
2019-01-23T23:25:19.049Z,86.56
2019-01-23T23:27:47.773Z,86.22
2019-01-23T23:30:21.954Z,86.04
2019-01-23T23:32:50.283Z,86.01
2019-01-23T23:35:18.629Z,86.22
2019-01-23T23:37:46.995Z,86.43
2019-01-23T23:40:16.508Z,86.53
2019-01-23T23:42:44.823Z,86.00
2019-01-23T23:45:18.414Z,85.71
2019-01-23T23:47:46.826Z,86.12
2019-01-23T23:50:16.897Z,86.59
2019-01-23T23:52:45.281Z,86.63
2019-01-23T23:55:15.950Z,86.23
2019-01-23T23:57:44.240Z,85.66
